sensor_id;sensor_type;location;lat;lon;timestamp;temperature;humidity
5792;DHT22;2922;53.482;10.006;2022-12-31T05:53:08;11.30;99.90
5792;DHT22;2922;53.482;10.006;2022-12-31T05:55:34;11.30;99.90
5792;DHT22;2922;53.482;10.006;2022-12-31T05:57:59;11.30;99.90
5792;DHT22;2922;53.482;10.006;2022-12-31T06:00:26;11.30;99.90
5792;DHT22;2922;53.482;10.006;2022-12-31T06:02:51;11.20;99.90
5792;DHT22;2922;53.482;10.006;2022-12-31T06:05:17;11.20;99.90
5792;DHT22;2922;53.482;10.006;2022-12-31T06:07:43;11.20;99.90
5792;DHT22;2922;53.482;10.006;2022-12-31T06:10:08;11.20;99.90
5792;DHT22;2922;53.482;10.006;2022-12-31T06:12:34;11.20;99.90
5792;DHT22;2922;53.482;10.006;2022-12-31T06:15:00;11.20;99.90
5792;DHT22;2922;53.482;10.006;2022-12-31T06:17:25;11.10;99.90
5792;DHT22;2922;53.482;10.006;2022-12-31T06:19:51;11.10;99.90
5792;DHT22;2922;53.482;10.006;2022-12-31T06:22:17;11.20;99.90
5792;DHT22;2922;53.482;10.006;2022-12-31T06:24:42;11.10;99.90
5792;DHT22;2922;53.482;10.006;2022-12-31T06:27:08;11.10;99.90
5792;DHT22;2922;53.482;10.006;2022-12-31T06:29:34;11.10;99.90
5792;DHT22;2922;53.482;10.006;2022-12-31T06:31:59;11.10;99.90
5792;DHT22;2922;53.482;10.006;2022-12-31T06:34:25;11.10;99.90
5792;DHT22;2922;53.482;10.006;2022-12-31T06:36:50;11.10;99.90
5792;DHT22;2922;53.482;10.006;2022-12-31T06:39:16;11.00;99.90
5792;DHT22;2922;53.482;10.006;2022-12-31T06:41:41;11.00;99.90
5792;DHT22;2922;53.482;10.006;2022-12-31T06:44:07;11.00;99.90
5792;DHT22;2922;53.482;10.006;2022-12-31T06:46:32;11.00;99.90
5792;DHT22;2922;53.482;10.006;2022-12-31T06:48:58;11.00;99.90
5792;DHT22;2922;53.482;10.006;2022-12-31T06:51:23;10.90;99.90
5792;DHT22;2922;53.482;10.006;2022-12-31T06:53:50;10.90;99.90
5792;DHT22;2922;53.482;10.006;2022-12-31T06:56:22;10.90;99.90
5792;DHT22;2922;53.482;10.006;2022-12-31T06:58:50;10.90;99.90
5792;DHT22;2922;53.482;10.006;2022-12-31T07:09:37;10.90;99.90
5792;DHT22;2922;53.482;10.006;2022-12-31T07:12:24;10.90;99.90
5792;DHT22;2922;53.482;10.006;2022-12-31T07:17:46;10.80;99.90
5792;DHT22;2922;53.482;10.006;2022-12-31T07:20:16;10.80;99.90
5792;DHT22;2922;53.482;10.006;2022-12-31T07:22:44;10.70;99.90
5792;DHT22;2922;53.482;10.006;2022-12-31T07:25:15;10.70;99.90
5792;DHT22;2922;53.482;10.006;2022-12-31T07:30:33;10.70;99.90
5792;DHT22;2922;53.482;10.006;2022-12-31T07:33:12;10.70;99.90
5792;DHT22;2922;53.482;10.006;2022-12-31T07:35:46;10.70;99.90
5792;DHT22;2922;53.482;10.006;2022-12-31T07:38:30;10.70;99.90
5792;DHT22;2922;53.482;10.006;2022-12-31T07:44:23;10.70;99.90
5792;DHT22;2922;53.482;10.006;2022-12-31T07:46:55;10.70;99.90
5792;DHT22;2922;53.482;10.006;2022-12-31T07:49:22;10.70;99.90
5792;DHT22;2922;53.482;10.006;2022-12-31T07:51:49;10.70;99.90
5792;DHT22;2922;53.482;10.006;2022-12-31T07:54:14;10.70;99.90
5792;DHT22;2922;53.482;10.006;2022-12-31T07:56:41;10.70;99.90
5792;DHT22;2922;53.482;10.006;2022-12-31T08:10:22;10.70;99.90
5792;DHT22;2922;53.482;10.006;2022-12-31T08:12:57;10.70;99.90
5792;DHT22;2922;53.482;10.006;2022-12-31T08:15:25;10.70;99.90
5792;DHT22;2922;53.482;10.006;2022-12-31T08:17:51;10.70;99.90
5792;DHT22;2922;53.482;10.006;2022-12-31T08:20:17;10.70;99.90
5792;DHT22;2922;53.482;10.006;2022-12-31T08:23:07;10.70;99.90
5792;DHT22;2922;53.482;10.006;2022-12-31T08:26:10;10.70;99.90
5792;DHT22;2922;53.482;10.006;2022-12-31T08:28:56;10.70;99.90
5792;DHT22;2922;53.482;10.006;2022-12-31T08:31:35;10.70;99.90
5792;DHT22;2922;53.482;10.006;2022-12-31T08:34:16;10.70;99.90
5792;DHT22;2922;53.482;10.006;2022-12-31T08:39:24;10.80;99.90
5792;DHT22;2922;53.482;10.006;2022-12-31T08:41:54;10.80;99.90
5792;DHT22;2922;53.482;10.006;2022-12-31T08:50:23;10.80;99.90
5792;DHT22;2922;53.482;10.006;2022-12-31T08:52:49;10.90;99.90
5792;DHT22;2922;53.482;10.006;2022-12-31T08:55:15;10.80;99.90
5792;DHT22;2922;53.482;10.006;2022-12-31T09:00:18;10.90;99.90
5792;DHT22;2922;53.482;10.006;2022-12-31T09:16:35;11.00;99.90
5792;DHT22;2922;53.482;10.006;2022-12-31T09:19:03;11.00;99.90
5792;DHT22;2922;53.482;10.006;2022-12-31T09:21:29;11.00;99.90
5792;DHT22;2922;53.482;10.006;2022-12-31T09:23:57;11.00;99.90
5792;DHT22;2922;53.482;10.006;2022-12-31T09:26:45;11.10;99.90
5792;DHT22;2922;53.482;10.006;2022-12-31T09:32:29;11.20;99.90
5792;DHT22;2922;53.482;10.006;2022-12-31T09:37:56;11.20;99.90
5792;DHT22;2922;53.482;10.006;2022-12-31T09:40:59;11.20;99.90
5792;DHT22;2922;53.482;10.006;2022-12-31T09:52:29;11.30;99.90
5792;DHT22;2922;53.482;10.006;2022-12-31T09:55:29;11.30;99.90
5792;DHT22;2922;53.482;10.006;2022-12-31T10:00:42;11.30;99.90
5792;DHT22;2922;53.482;10.006;2022-12-31T10:12:21;11.30;99.90
5792;DHT22;2922;53.482;10.006;2022-12-31T10:26:03;11.40;99.90
5792;DHT22;2922;53.482;10.006;2022-12-31T10:36:54;11.50;99.90
5792;DHT22;2922;53.482;10.006;2022-12-31T10:42:28;11.50;99.90
5792;DHT22;2922;53.482;10.006;2022-12-31T10:45:18;11.60;99.90
5792;DHT22;2922;53.482;10.006;2022-12-31T10:56:14;11.80;99.90
5792;DHT22;2922;53.482;10.006;2022-12-31T11:07:50;12.00;99.90
5792;DHT22;2922;53.482;10.006;2022-12-31T11:29:22;12.40;99.90
5792;DHT22;2922;53.482;10.006;2022-12-31T11:43:10;12.70;99.90
5792;DHT22;2922;53.482;10.006;2022-12-31T11:48:42;12.90;99.90
5792;DHT22;2922;53.482;10.006;2022-12-31T11:54:31;13.00;99.90
5792;DHT22;2922;53.482;10.006;2022-12-31T11:56:40;13.00;99.90
5792;DHT22;2922;53.482;10.006;2022-12-31T11:59:12;13.10;99.90
5792;DHT22;2922;53.482;10.006;2022-12-31T12:01:52;13.20;99.90
5792;DHT22;2922;53.482;10.006;2022-12-31T12:04:20;13.20;99.90
5792;DHT22;2922;53.482;10.006;2022-12-31T12:06:46;13.30;99.90
5792;DHT22;2922;53.482;10.006;2022-12-31T12:09:26;13.40;99.90
5792;DHT22;2922;53.482;10.006;2022-12-31T12:12:01;13.40;99.90
5792;DHT22;2922;53.482;10.006;2022-12-31T12:14:40;13.40;99.90
5792;DHT22;2922;53.482;10.006;2022-12-31T12:17:15;13.40;99.90
5792;DHT22;2922;53.482;10.006;2022-12-31T12:19:44;13.40;99.90
5792;DHT22;2922;53.482;10.006;2022-12-31T12:22:20;13.50;99.90
5792;DHT22;2922;53.482;10.006;2022-12-31T12:25:05;13.40;99.90
5792;DHT22;2922;53.482;10.006;2022-12-31T12:27:33;13.40;99.90
5792;DHT22;2922;53.482;10.006;2022-12-31T12:30:20;13.40;99.90
5792;DHT22;2922;53.482;10.006;2022-12-31T12:33:00;13.50;99.90
5792;DHT22;2922;53.482;10.006;2022-12-31T12:35:34;13.50;99.90
5792;DHT22;2922;53.482;10.006;2022-12-31T12:38:05;13.50;99.90
5792;DHT22;2922;53.482;10.006;2022-12-31T12:40:32;13.60;99.90
5792;DHT22;2922;53.482;10.006;2022-12-31T12:42:59;13.60;99.90
5792;DHT22;2922;53.482;10.006;2022-12-31T12:45:41;13.70;99.90
5792;DHT22;2922;53.482;10.006;2022-12-31T12:48:17;13.60;99.90
5792;DHT22;2922;53.482;10.006;2022-12-31T12:50:46;13.60;99.90
5792;DHT22;2922;53.482;10.006;2022-12-31T12:53:23;13.60;99.90
5792;DHT22;2922;53.482;10.006;2022-12-31T13:07:23;13.70;99.90
5792;DHT22;2922;53.482;10.006;2022-12-31T13:15:39;13.70;99.90
5792;DHT22;2922;53.482;10.006;2022-12-31T13:18:37;13.70;99.90
5792;DHT22;2922;53.482;10.006;2022-12-31T13:24:06;13.60;99.90
5792;DHT22;2922;53.482;10.006;2022-12-31T13:26:41;13.60;99.90
5792;DHT22;2922;53.482;10.006;2022-12-31T13:29:14;13.60;99.90
5792;DHT22;2922;53.482;10.006;2022-12-31T13:31:42;13.60;99.90
5792;DHT22;2922;53.482;10.006;2022-12-31T13:34:28;13.50;99.90
5792;DHT22;2922;53.482;10.006;2022-12-31T13:36:57;13.50;99.90
5792;DHT22;2922;53.482;10.006;2022-12-31T13:39:29;13.50;99.90
5792;DHT22;2922;53.482;10.006;2022-12-31T13:42:02;13.50;99.90
5792;DHT22;2922;53.482;10.006;2022-12-31T13:44:50;13.50;99.90
5792;DHT22;2922;53.482;10.006;2022-12-31T13:47:37;13.50;99.90
5792;DHT22;2922;53.482;10.006;2022-12-31T13:52:57;13.50;99.90
5792;DHT22;2922;53.482;10.006;2022-12-31T14:00:52;13.50;99.90
5792;DHT22;2922;53.482;10.006;2022-12-31T14:03:56;13.40;99.90
5792;DHT22;2922;53.482;10.006;2022-12-31T14:06:35;13.40;99.90
5792;DHT22;2922;53.482;10.006;2022-12-31T14:09:04;13.40;99.90
5792;DHT22;2922;53.482;10.006;2022-12-31T14:14:22;13.50;99.90
5792;DHT22;2922;53.482;10.006;2022-12-31T14:24:48;13.50;99.90
5792;DHT22;2922;53.482;10.006;2022-12-31T14:27:34;13.50;99.90
5792;DHT22;2922;53.482;10.006;2022-12-31T14:30:14;13.50;99.90
5792;DHT22;2922;53.482;10.006;2022-12-31T14:35:56;13.60;99.90
5792;DHT22;2922;53.482;10.006;2022-12-31T14:47:05;13.70;99.90
5792;DHT22;2922;53.482;10.006;2022-12-31T14:52:22;13.70;99.90
5792;DHT22;2922;53.482;10.006;2022-12-31T14:57:35;13.70;99.90
5792;DHT22;2922;53.482;10.006;2022-12-31T15:00:31;13.70;99.90
5792;DHT22;2922;53.482;10.006;2022-12-31T15:03:05;13.70;99.90
5792;DHT22;2922;53.482;10.006;2022-12-31T15:05:34;13.70;99.90
5792;DHT22;2922;53.482;10.006;2022-12-31T15:08:12;13.80;99.90
5792;DHT22;2922;53.482;10.006;2022-12-31T15:11:08;13.80;99.90
5792;DHT22;2922;53.482;10.006;2022-12-31T15:24:44;13.70;99.90
5792;DHT22;2922;53.482;10.006;2022-12-31T15:29:54;13.70;99.90
5792;DHT22;2922;53.482;10.006;2022-12-31T15:32:27;13.70;99.90
5792;DHT22;2922;53.482;10.006;2022-12-31T15:35:26;13.70;99.90
5792;DHT22;2922;53.482;10.006;2022-12-31T15:40:51;13.60;99.90
5792;DHT22;2922;53.482;10.006;2022-12-31T15:45:49;13.60;99.90
5792;DHT22;2922;53.482;10.006;2022-12-31T15:48:36;13.60;99.90
5792;DHT22;2922;53.482;10.006;2022-12-31T15:51:58;13.60;99.90
5792;DHT22;2922;53.482;10.006;2022-12-31T15:53:57;13.50;99.90
5792;DHT22;2922;53.482;10.006;2022-12-31T15:56:40;13.50;99.90
5792;DHT22;2922;53.482;10.006;2022-12-31T15:59:11;13.50;99.90
5792;DHT22;2922;53.482;10.006;2022-12-31T16:01:40;13.50;99.90
5792;DHT22;2922;53.482;10.006;2022-12-31T16:06:38;13.50;99.90
5792;DHT22;2922;53.482;10.006;2022-12-31T16:09:36;13.40;99.90
5792;DHT22;2922;53.482;10.006;2022-12-31T16:12:08;13.40;99.90
5792;DHT22;2922;53.482;10.006;2022-12-31T16:14:55;13.40;99.90
5792;DHT22;2922;53.482;10.006;2022-12-31T16:17:35;13.30;99.90
5792;DHT22;2922;53.482;10.006;2022-12-31T16:20:22;13.30;99.90
5792;DHT22;2922;53.482;10.006;2022-12-31T16:22:56;13.30;99.90
5792;DHT22;2922;53.482;10.006;2022-12-31T16:25:22;13.30;99.90
5792;DHT22;2922;53.482;10.006;2022-12-31T16:27:49;13.20;99.90
5792;DHT22;2922;53.482;10.006;2022-12-31T16:30:27;13.20;99.90
5792;DHT22;2922;53.482;10.006;2022-12-31T16:32:59;13.20;99.90
5792;DHT22;2922;53.482;10.006;2022-12-31T16:35:33;13.10;99.90
5792;DHT22;2922;53.482;10.006;2022-12-31T16:38:10;13.10;99.90
5792;DHT22;2922;53.482;10.006;2022-12-31T16:40:36;13.10;99.90
5792;DHT22;2922;53.482;10.006;2022-12-31T16:43:03;13.00;99.90
5792;DHT22;2922;53.482;10.006;2022-12-31T16:45:34;13.00;99.90
5792;DHT22;2922;53.482;10.006;2022-12-31T16:48:09;13.00;99.90
5792;DHT22;2922;53.482;10.006;2022-12-31T16:50:46;13.00;99.90
5792;DHT22;2922;53.482;10.006;2022-12-31T16:53:16;12.90;99.90
5792;DHT22;2922;53.482;10.006;2022-12-31T16:55:43;12.90;99.90
5792;DHT22;2922;53.482;10.006;2022-12-31T16:58:18;12.90;99.90
5792;DHT22;2922;53.482;10.006;2022-12-31T17:00:45;12.90;99.90
5792;DHT22;2922;53.482;10.006;2022-12-31T17:16:55;12.90;99.90
5792;DHT22;2922;53.482;10.006;2022-12-31T17:19:37;12.90;99.90
5792;DHT22;2922;53.482;10.006;2022-12-31T17:22:08;12.90;99.90
5792;DHT22;2922;53.482;10.006;2022-12-31T17:24:35;13.00;99.90
5792;DHT22;2922;53.482;10.006;2022-12-31T17:27:05;13.00;99.90
5792;DHT22;2922;53.482;10.006;2022-12-31T17:29:32;13.10;99.90
5792;DHT22;2922;53.482;10.006;2022-12-31T17:32:34;13.20;99.90
5792;DHT22;2922;53.482;10.006;2022-12-31T17:35:00;13.30;99.90
5792;DHT22;2922;53.482;10.006;2022-12-31T17:37:28;13.40;99.90
5792;DHT22;2922;53.482;10.006;2022-12-31T17:39:58;13.50;99.90
5792;DHT22;2922;53.482;10.006;2022-12-31T17:42:31;13.50;99.90
5792;DHT22;2922;53.482;10.006;2022-12-31T17:45:04;13.60;99.90
5792;DHT22;2922;53.482;10.006;2022-12-31T17:47:39;13.60;99.90
5792;DHT22;2922;53.482;10.006;2022-12-31T17:50:15;13.60;99.90
5792;DHT22;2922;53.482;10.006;2022-12-31T19:14:37;13.90;99.90
5792;DHT22;2922;53.482;10.006;2022-12-31T19:17:03;13.90;99.90
5792;DHT22;2922;53.482;10.006;2022-12-31T19:19:28;13.90;99.90
5792;DHT22;2922;53.482;10.006;2022-12-31T19:21:54;14.00;99.90
5792;DHT22;2922;53.482;10.006;2022-12-31T19:24:22;13.90;99.90
5792;DHT22;2922;53.482;10.006;2022-12-31T19:26:48;13.90;99.90
5792;DHT22;2922;53.482;10.006;2022-12-31T19:29:23;13.90;99.90
5792;DHT22;2922;53.482;10.006;2022-12-31T19:31:48;13.90;99.90
5792;DHT22;2922;53.482;10.006;2022-12-31T19:34:14;13.90;99.90
5792;DHT22;2922;53.482;10.006;2022-12-31T19:36:40;14.00;99.90
5792;DHT22;2922;53.482;10.006;2022-12-31T19:39:12;13.90;99.90
5792;DHT22;2922;53.482;10.006;2022-12-31T19:41:40;14.00;99.90
5792;DHT22;2922;53.482;10.006;2022-12-31T19:44:15;14.00;99.90
5792;DHT22;2922;53.482;10.006;2022-12-31T19:46:41;14.00;99.90
5792;DHT22;2922;53.482;10.006;2022-12-31T19:49:10;14.00;99.90
5792;DHT22;2922;53.482;10.006;2022-12-31T19:51:35;14.00;99.90
5792;DHT22;2922;53.482;10.006;2022-12-31T19:54:01;14.00;99.90
5792;DHT22;2922;53.482;10.006;2022-12-31T19:56:26;14.00;99.90
5792;DHT22;2922;53.482;10.006;2022-12-31T19:58:52;14.00;99.90
5792;DHT22;2922;53.482;10.006;2022-12-31T20:01:23;14.00;99.90
5792;DHT22;2922;53.482;10.006;2022-12-31T20:03:49;14.00;99.90
5792;DHT22;2922;53.482;10.006;2022-12-31T20:06:16;14.10;99.90
5792;DHT22;2922;53.482;10.006;2022-12-31T20:08:43;14.10;99.90
5792;DHT22;2922;53.482;10.006;2022-12-31T20:11:14;14.10;99.90
5792;DHT22;2922;53.482;10.006;2022-12-31T20:13:41;14.10;99.90
5792;DHT22;2922;53.482;10.006;2022-12-31T20:16:08;14.20;99.90
5792;DHT22;2922;53.482;10.006;2022-12-31T20:18:38;14.30;99.90
5792;DHT22;2922;53.482;10.006;2022-12-31T20:21:08;14.30;99.90
5792;DHT22;2922;53.482;10.006;2022-12-31T20:23:34;14.20;99.90
5792;DHT22;2922;53.482;10.006;2022-12-31T20:26:00;14.30;99.90
5792;DHT22;2922;53.482;10.006;2022-12-31T20:28:27;14.30;99.90
5792;DHT22;2922;53.482;10.006;2022-12-31T20:30:53;14.30;99.90
5792;DHT22;2922;53.482;10.006;2022-12-31T20:33:19;14.50;99.90
5792;DHT22;2922;53.482;10.006;2022-12-31T20:35:44;14.40;99.90
5792;DHT22;2922;53.482;10.006;2022-12-31T20:38:10;14.30;99.90
5792;DHT22;2922;53.482;10.006;2022-12-31T20:40:36;14.40;99.90
5792;DHT22;2922;53.482;10.006;2022-12-31T20:43:01;14.40;99.90
5792;DHT22;2922;53.482;10.006;2022-12-31T20:45:27;14.50;99.90
5792;DHT22;2922;53.482;10.006;2022-12-31T20:47:52;14.50;99.90
5792;DHT22;2922;53.482;10.006;2022-12-31T20:50:18;14.50;99.90
5792;DHT22;2922;53.482;10.006;2022-12-31T20:52:43;14.40;99.90
5792;DHT22;2922;53.482;10.006;2022-12-31T20:55:10;14.50;99.90
5792;DHT22;2922;53.482;10.006;2022-12-31T20:57:38;14.60;99.90
5792;DHT22;2922;53.482;10.006;2022-12-31T21:00:06;14.50;99.90
5792;DHT22;2922;53.482;10.006;2022-12-31T21:02:32;14.60;99.90
5792;DHT22;2922;53.482;10.006;2022-12-31T21:04:57;14.60;99.90
5792;DHT22;2922;53.482;10.006;2022-12-31T21:07:23;14.60;99.90
5792;DHT22;2922;53.482;10.006;2022-12-31T21:09:49;14.60;99.90
5792;DHT22;2922;53.482;10.006;2022-12-31T21:12:14;14.70;99.90
5792;DHT22;2922;53.482;10.006;2022-12-31T21:14:58;14.60;99.90
5792;DHT22;2922;53.482;10.006;2022-12-31T21:17:24;14.60;99.90
5792;DHT22;2922;53.482;10.006;2022-12-31T21:19:49;14.60;99.90
5792;DHT22;2922;53.482;10.006;2022-12-31T21:22:15;14.70;99.90
5792;DHT22;2922;53.482;10.006;2022-12-31T21:24:40;14.80;99.90
5792;DHT22;2922;53.482;10.006;2022-12-31T21:27:06;14.70;99.90
5792;DHT22;2922;53.482;10.006;2022-12-31T21:29:32;14.70;99.90
5792;DHT22;2922;53.482;10.006;2022-12-31T21:31:58;14.80;99.90
5792;DHT22;2922;53.482;10.006;2022-12-31T21:34:23;14.70;99.90
5792;DHT22;2922;53.482;10.006;2022-12-31T21:36:49;14.70;99.90
5792;DHT22;2922;53.482;10.006;2022-12-31T21:39:14;14.70;99.90
5792;DHT22;2922;53.482;10.006;2022-12-31T21:41:40;14.70;99.90
5792;DHT22;2922;53.482;10.006;2022-12-31T21:44:19;14.70;99.90
5792;DHT22;2922;53.482;10.006;2022-12-31T21:46:51;14.60;99.90
5792;DHT22;2922;53.482;10.006;2022-12-31T21:49:17;14.60;99.90
5792;DHT22;2922;53.482;10.006;2022-12-31T21:51:43;14.70;99.90
5792;DHT22;2922;53.482;10.006;2022-12-31T21:54:27;14.70;99.90
5792;DHT22;2922;53.482;10.006;2022-12-31T21:57:11;14.80;99.90
5792;DHT22;2922;53.482;10.006;2022-12-31T21:59:36;14.80;99.90
5792;DHT22;2922;53.482;10.006;2022-12-31T22:02:21;14.80;99.90
5792;DHT22;2922;53.482;10.006;2022-12-31T22:05:05;14.90;99.90
5792;DHT22;2922;53.482;10.006;2022-12-31T22:07:30;14.90;99.90
5792;DHT22;2922;53.482;10.006;2022-12-31T22:09:56;14.90;99.90
5792;DHT22;2922;53.482;10.006;2022-12-31T22:12:22;14.90;99.90
5792;DHT22;2922;53.482;10.006;2022-12-31T22:14:47;14.90;99.90
5792;DHT22;2922;53.482;10.006;2022-12-31T22:17:13;14.90;99.90
5792;DHT22;2922;53.482;10.006;2022-12-31T22:19:38;15.00;99.90
5792;DHT22;2922;53.482;10.006;2022-12-31T22:22:04;14.90;99.90
5792;DHT22;2922;53.482;10.006;2022-12-31T22:24:30;15.00;99.90
5792;DHT22;2922;53.482;10.006;2022-12-31T22:26:56;15.00;99.90
5792;DHT22;2922;53.482;10.006;2022-12-31T22:29:24;14.90;99.90
5792;DHT22;2922;53.482;10.006;2022-12-31T22:31:50;15.00;99.90
5792;DHT22;2922;53.482;10.006;2022-12-31T22:34:16;15.00;99.90
5792;DHT22;2922;53.482;10.006;2022-12-31T22:36:42;15.00;99.90
5792;DHT22;2922;53.482;10.006;2022-12-31T22:39:13;15.10;99.90
5792;DHT22;2922;53.482;10.006;2022-12-31T22:41:39;15.00;99.90
5792;DHT22;2922;53.482;10.006;2022-12-31T22:44:06;15.00;99.90
5792;DHT22;2922;53.482;10.006;2022-12-31T22:46:33;15.00;99.90
5792;DHT22;2922;53.482;10.006;2022-12-31T22:49:01;15.00;99.90
5792;DHT22;2922;53.482;10.006;2022-12-31T22:51:28;15.00;99.90
5792;DHT22;2922;53.482;10.006;2022-12-31T22:53:54;15.00;99.90
5792;DHT22;2922;53.482;10.006;2022-12-31T22:56:20;15.10;99.90
5792;DHT22;2922;53.482;10.006;2022-12-31T22:58:46;15.00;99.90
5792;DHT22;2922;53.482;10.006;2022-12-31T23:01:20;15.00;99.90
5792;DHT22;2922;53.482;10.006;2022-12-31T23:03:47;15.00;99.90
5792;DHT22;2922;53.482;10.006;2022-12-31T23:06:13;15.10;99.90
5792;DHT22;2922;53.482;10.006;2022-12-31T23:08:39;15.10;99.90
5792;DHT22;2922;53.482;10.006;2022-12-31T23:11:05;15.10;99.90
5792;DHT22;2922;53.482;10.006;2022-12-31T23:13:41;15.10;99.90
5792;DHT22;2922;53.482;10.006;2022-12-31T23:16:27;15.10;99.90
5792;DHT22;2922;53.482;10.006;2022-12-31T23:19:14;15.00;99.90
5792;DHT22;2922;53.482;10.006;2022-12-31T23:21:58;15.20;99.90
5792;DHT22;2922;53.482;10.006;2022-12-31T23:24:42;15.20;99.90
5792;DHT22;2922;53.482;10.006;2022-12-31T23:27:08;15.20;99.90
5792;DHT22;2922;53.482;10.006;2022-12-31T23:29:37;15.20;99.90
5792;DHT22;2922;53.482;10.006;2022-12-31T23:32:04;15.10;99.90
5792;DHT22;2922;53.482;10.006;2022-12-31T23:34:29;15.10;99.90
5792;DHT22;2922;53.482;10.006;2022-12-31T23:36:55;15.10;99.90
5792;DHT22;2922;53.482;10.006;2022-12-31T23:39:20;15.00;99.90
5792;DHT22;2922;53.482;10.006;2022-12-31T23:41:46;15.10;99.90
5792;DHT22;2922;53.482;10.006;2022-12-31T23:44:12;15.10;99.90
5792;DHT22;2922;53.482;10.006;2022-12-31T23:46:38;15.10;99.90
5792;DHT22;2922;53.482;10.006;2022-12-31T23:49:03;15.10;99.90
5792;DHT22;2922;53.482;10.006;2022-12-31T23:51:29;15.10;99.90
5792;DHT22;2922;53.482;10.006;2022-12-31T23:53:54;15.20;99.90
5792;DHT22;2922;53.482;10.006;2022-12-31T23:56:20;15.10;99.90
5792;DHT22;2922;53.482;10.006;2022-12-31T23:58:46;15.10;99.90
